sensor_id;sensor_type;location;lat;lon;timestamp;pressure;altitude;pressure_sealevel;temperature;humidity
72857;BME280;62742;52.136;4.500;2022-09-13T00:01:00;101089.81;;;18.87;79.93
72857;BME280;62742;52.136;4.500;2022-09-13T00:03:27;101094.97;;;18.91;80.05
72857;BME280;62742;52.136;4.500;2022-09-13T00:05:54;101096.91;;;18.87;79.99
72857;BME280;62742;52.136;4.500;2022-09-13T00:08:21;101102.28;;;18.85;79.88
72857;BME280;62742;52.136;4.500;2022-09-13T00:10:48;101102.28;;;18.85;79.90
72857;BME280;62742;52.136;4.500;2022-09-13T00:13:15;101090.72;;;18.86;79.94
72857;BME280;62742;52.136;4.500;2022-09-13T00:15:44;101087.28;;;18.84;80.02
72857;BME280;62742;52.136;4.500;2022-09-13T00:18:12;101089.69;;;18.89;80.03
72857;BME280;62742;52.136;4.500;2022-09-13T00:20:40;101088.97;;;18.85;80.05
72857;BME280;62742;52.136;4.500;2022-09-13T00:23:06;101088.91;;;18.87;79.92
72857;BME280;62742;52.136;4.500;2022-09-13T00:25:33;101089.94;;;18.84;79.71
72857;BME280;62742;52.136;4.500;2022-09-13T00:28:00;101080.91;;;18.87;79.84
72857;BME280;62742;52.136;4.500;2022-09-13T00:30:26;101085.31;;;18.88;79.99
72857;BME280;62742;52.136;4.500;2022-09-13T00:32:53;101088.28;;;18.80;80.24
72857;BME280;62742;52.136;4.500;2022-09-13T00:35:19;101081.16;;;18.82;80.68
72857;BME280;62742;52.136;4.500;2022-09-13T00:37:46;101087.50;;;18.78;80.60
72857;BME280;62742;52.136;4.500;2022-09-13T00:40:12;101072.69;;;18.73;80.79
72857;BME280;62742;52.136;4.500;2022-09-13T00:42:39;101086.66;;;18.78;80.55
72857;BME280;62742;52.136;4.500;2022-09-13T00:47:48;101085.88;;;18.76;80.88
72857;BME280;62742;52.136;4.500;2022-09-13T00:50:31;101090.16;;;18.78;80.96
72857;BME280;62742;52.136;4.500;2022-09-13T00:53:13;101090.16;;;18.78;80.65
72857;BME280;62742;52.136;4.500;2022-09-13T00:55:52;101093.78;;;18.77;80.40
72857;BME280;62742;52.136;4.500;2022-09-13T00:59:22;101089.38;;;18.76;80.51
72857;BME280;62742;52.136;4.500;2022-09-13T01:01:48;101078.94;;;18.72;80.44
72857;BME280;62742;52.136;4.500;2022-09-13T01:04:23;101082.97;;;18.80;80.26
72857;BME280;62742;52.136;4.500;2022-09-13T01:06:55;101088.06;;;18.86;80.94
72857;BME280;62742;52.136;4.500;2022-09-13T01:09:28;101082.97;;;18.80;80.82
72857;BME280;62742;52.136;4.500;2022-09-13T01:12:02;101090.31;;;18.75;80.79
72857;BME280;62742;52.136;4.500;2022-09-13T01:14:39;101088.72;;;18.71;81.13
72857;BME280;62742;52.136;4.500;2022-09-13T01:17:08;101085.16;;;18.72;80.90
72857;BME280;62742;52.136;4.500;2022-09-13T01:19:35;101084.25;;;18.72;80.80
72857;BME280;62742;52.136;4.500;2022-09-13T01:25:10;101079.81;;;18.72;81.09
72857;BME280;62742;52.136;4.500;2022-09-13T01:37:00;101071.75;;;18.74;81.46
72857;BME280;62742;52.136;4.500;2022-09-13T01:46:10;101061.53;;;18.64;80.90
72857;BME280;62742;52.136;4.500;2022-09-13T02:00:17;101064.56;;;18.57;81.91
72857;BME280;62742;52.136;4.500;2022-09-13T02:03:07;101063.66;;;18.56;81.69
72857;BME280;62742;52.136;4.500;2022-09-13T02:06:05;101055.94;;;18.71;81.88
72857;BME280;62742;52.136;4.500;2022-09-13T02:08:42;101052.56;;;18.67;81.83
72857;BME280;62742;52.136;4.500;2022-09-13T02:11:15;101057.50;;;18.56;81.68
72857;BME280;62742;52.136;4.500;2022-09-13T02:14:10;101058.16;;;18.61;81.12
72857;BME280;62742;52.136;4.500;2022-09-13T02:16:54;101056.19;;;18.45;81.14
72857;BME280;62742;52.136;4.500;2022-09-13T02:19:57;101052.94;;;18.39;81.22
72857;BME280;62742;52.136;4.500;2022-09-13T02:22:31;101050.53;;;18.32;81.39
72857;BME280;62742;52.136;4.500;2022-09-13T02:25:09;101061.03;;;18.36;81.31
72857;BME280;62742;52.136;4.500;2022-09-13T02:27:42;101061.91;;;18.36;81.66
72857;BME280;62742;52.136;4.500;2022-09-13T02:30:13;101062.91;;;18.34;81.80
72857;BME280;62742;52.136;4.500;2022-09-13T02:32:53;101062.00;;;18.35;81.74
72857;BME280;62742;52.136;4.500;2022-09-13T02:35:37;101062.06;;;18.33;81.65
72857;BME280;62742;52.136;4.500;2022-09-13T02:38:19;101054.16;;;18.31;81.64
72857;BME280;62742;52.136;4.500;2022-09-13T02:41:05;101060.31;;;18.32;81.79
72857;BME280;62742;52.136;4.500;2022-09-13T02:43:47;101064.78;;;18.31;81.85
72857;BME280;62742;52.136;4.500;2022-09-13T02:49:23;101062.06;;;18.33;81.50
72857;BME280;62742;52.136;4.500;2022-09-13T02:52:18;101059.53;;;18.30;81.77
72857;BME280;62742;52.136;4.500;2022-09-13T02:54:56;101055.91;;;18.31;82.08
72857;BME280;62742;52.136;4.500;2022-09-13T02:57:49;101057.59;;;18.34;81.52
72857;BME280;62742;52.136;4.500;2022-09-13T03:00:24;101047.94;;;18.31;81.92
72857;BME280;62742;52.136;4.500;2022-09-13T03:02:52;101066.50;;;18.32;82.34
72857;BME280;62742;52.136;4.500;2022-09-13T03:05:22;101070.97;;;18.32;82.25
72857;BME280;62742;52.136;4.500;2022-09-13T03:07:49;101069.09;;;18.34;82.27
72857;BME280;62742;52.136;4.500;2022-09-13T03:10:17;101072.63;;;18.35;82.29
72857;BME280;62742;52.136;4.500;2022-09-13T03:13:02;101076.16;;;18.35;81.93
72857;BME280;62742;52.136;4.500;2022-09-13T03:18:43;101058.69;;;18.29;81.95
72857;BME280;62742;52.136;4.500;2022-09-13T03:21:47;101063.19;;;18.27;81.56
72857;BME280;62742;52.136;4.500;2022-09-13T03:24:22;101063.13;;;18.29;81.84
72857;BME280;62742;52.136;4.500;2022-09-13T03:30:02;101069.50;;;18.25;81.79
72857;BME280;62742;52.136;4.500;2022-09-13T03:32:59;101069.63;;;18.22;81.92
72857;BME280;62742;52.136;4.500;2022-09-13T03:35:57;101072.38;;;18.20;82.04
72857;BME280;62742;52.136;4.500;2022-09-13T03:38:39;101073.50;;;18.15;82.13
72857;BME280;62742;52.136;4.500;2022-09-13T03:41:19;101066.25;;;18.18;81.79
72857;BME280;62742;52.136;4.500;2022-09-13T03:43:53;101077.97;;;18.14;81.98
72857;BME280;62742;52.136;4.500;2022-09-13T03:46:30;101070.97;;;18.32;82.25
72857;BME280;62742;52.136;4.500;2022-09-13T03:49:15;101065.34;;;18.19;81.85
72857;BME280;62742;52.136;4.500;2022-09-13T03:51:47;101063.72;;;18.15;82.51
72857;BME280;62742;52.136;4.500;2022-09-13T03:54:19;101064.06;;;18.07;82.19
72857;BME280;62742;52.136;4.500;2022-09-13T03:57:16;101063.34;;;18.04;81.48
72857;BME280;62742;52.136;4.500;2022-09-13T03:59:52;101066.25;;;17.98;82.00
72857;BME280;62742;52.136;4.500;2022-09-13T04:02:23;101065.53;;;17.94;82.10
72857;BME280;62742;52.136;4.500;2022-09-13T04:04:51;101064.78;;;17.90;81.90
72857;BME280;62742;52.136;4.500;2022-09-13T04:07:22;101068.38;;;17.89;81.83
72857;BME280;62742;52.136;4.500;2022-09-13T04:09:50;101067.59;;;17.86;81.95
72857;BME280;62742;52.136;4.500;2022-09-13T04:12:17;101076.16;;;17.94;81.70
72857;BME280;62742;52.136;4.500;2022-09-13T04:14:44;101079.88;;;17.90;81.69
72857;BME280;62742;52.136;4.500;2022-09-13T04:17:11;101068.00;;;17.76;81.92
72857;BME280;62742;52.136;4.500;2022-09-13T04:19:39;101070.00;;;17.71;81.53
72857;BME280;62742;52.136;4.500;2022-09-13T04:22:06;101070.97;;;17.69;81.48
72857;BME280;62742;52.136;4.500;2022-09-13T04:24:32;101077.28;;;17.66;81.94
72857;BME280;62742;52.136;4.500;2022-09-13T04:27:00;101079.88;;;17.68;81.68
72857;BME280;62742;52.136;4.500;2022-09-13T04:29:27;101070.25;;;17.65;82.04
72857;BME280;62742;52.136;4.500;2022-09-13T04:31:54;101087.66;;;17.72;81.79
72857;BME280;62742;52.136;4.500;2022-09-13T04:34:21;101081.59;;;17.69;82.00
72857;BME280;62742;52.136;4.500;2022-09-13T04:36:49;101080.00;;;17.65;82.08
72857;BME280;62742;52.136;4.500;2022-09-13T04:39:18;101090.78;;;17.62;82.14
72857;BME280;62742;52.136;4.500;2022-09-13T04:41:47;101088.06;;;17.63;82.27
72857;BME280;62742;52.136;4.500;2022-09-13T04:44:16;101088.06;;;17.63;81.94
72857;BME280;62742;52.136;4.500;2022-09-13T04:46:45;101097.66;;;17.66;82.28
72857;BME280;62742;52.136;4.500;2022-09-13T04:49:14;101096.69;;;17.68;82.84
72857;BME280;62742;52.136;4.500;2022-09-13T04:51:42;101100.28;;;17.67;82.78
72857;BME280;62742;52.136;4.500;2022-09-13T04:54:09;101091.44;;;17.67;82.61
72857;BME280;62742;52.136;4.500;2022-09-13T04:56:36;101086.91;;;17.69;82.73
72857;BME280;62742;52.136;4.500;2022-09-13T04:59:03;101094.72;;;17.73;82.82
72857;BME280;62742;52.136;4.500;2022-09-13T05:01:29;101100.72;;;17.79;83.13
72857;BME280;62742;52.136;4.500;2022-09-13T05:03:56;101088.28;;;17.79;83.01
72857;BME280;62742;52.136;4.500;2022-09-13T05:06:22;101096.19;;;17.81;82.24
72857;BME280;62742;52.136;4.500;2022-09-13T05:08:51;101090.00;;;17.80;82.25
72857;BME280;62742;52.136;4.500;2022-09-13T05:11:24;101089.06;;;17.81;82.50
72857;BME280;62742;52.136;4.500;2022-09-13T05:13:55;101094.44;;;17.80;82.38
72857;BME280;62742;52.136;4.500;2022-09-13T05:16:25;101095.25;;;17.82;82.24
72857;BME280;62742;52.136;4.500;2022-09-13T05:18:54;101096.06;;;17.84;82.19
72857;BME280;62742;52.136;4.500;2022-09-13T05:21:20;101097.88;;;17.83;82.53
72857;BME280;62742;52.136;4.500;2022-09-13T05:23:48;101103.09;;;17.85;82.72
72857;BME280;62742;52.136;4.500;2022-09-13T05:26:20;101103.09;;;17.85;82.93
72857;BME280;62742;52.136;4.500;2022-09-13T05:28:48;101112.81;;;17.86;83.40
72857;BME280;62742;52.136;4.500;2022-09-13T05:31:18;101112.88;;;17.84;83.41
72857;BME280;62742;52.136;4.500;2022-09-13T05:33:52;101110.16;;;17.86;83.05
72857;BME280;62742;52.136;4.500;2022-09-13T05:36:20;101125.06;;;17.90;84.06
72857;BME280;62742;52.136;4.500;2022-09-13T05:38:47;101115.94;;;17.97;83.99
72857;BME280;62742;52.136;4.500;2022-09-13T05:41:14;101121.03;;;18.02;84.21
72857;BME280;62742;52.136;4.500;2022-09-13T05:43:40;101131.47;;;18.06;84.03
72857;BME280;62742;52.136;4.500;2022-09-13T05:46:12;101125.91;;;18.12;84.53
72857;BME280;62742;52.136;4.500;2022-09-13T05:48:41;101122.25;;;18.15;84.10
72857;BME280;62742;52.136;4.500;2022-09-13T05:51:19;101120.13;;;18.23;84.33
72857;BME280;62742;52.136;4.500;2022-09-13T05:53:50;101128.03;;;18.25;84.24
72857;BME280;62742;52.136;4.500;2022-09-13T05:56:22;101128.50;;;18.35;84.56
72857;BME280;62742;52.136;4.500;2022-09-13T05:58:52;101127.63;;;18.34;84.31
72857;BME280;62742;52.136;4.500;2022-09-13T06:01:22;101130.22;;;18.36;84.11
72857;BME280;62742;52.136;4.500;2022-09-13T06:03:52;101127.25;;;18.43;84.70
72857;BME280;62742;52.136;4.500;2022-09-13T06:06:20;101136.75;;;18.49;84.51
72857;BME280;62742;52.136;4.500;2022-09-13T06:08:52;101133.00;;;18.53;84.48
72857;BME280;62742;52.136;4.500;2022-09-13T06:11:24;101131.09;;;18.57;84.73
72857;BME280;62742;52.136;4.500;2022-09-13T06:13:52;101136.97;;;18.63;85.27
72857;BME280;62742;52.136;4.500;2022-09-13T06:16:19;101136.78;;;18.68;84.88
72857;BME280;62742;52.136;4.500;2022-09-13T06:18:45;101138.41;;;18.72;84.69
72857;BME280;62742;52.136;4.500;2022-09-13T06:21:15;101136.38;;;18.77;85.16
72857;BME280;62742;52.136;4.500;2022-09-13T06:23:48;101135.28;;;18.83;85.68
72857;BME280;62742;52.136;4.500;2022-09-13T06:26:21;101142.09;;;18.88;85.39
72857;BME280;62742;52.136;4.500;2022-09-13T06:28:52;101147.16;;;18.95;85.58
72857;BME280;62742;52.136;4.500;2022-09-13T06:31:23;101133.72;;;18.98;85.88
72857;BME280;62742;52.136;4.500;2022-09-13T06:33:59;101140.34;;;19.08;85.84
72857;BME280;62742;52.136;4.500;2022-09-13T06:36:29;101150.81;;;19.11;85.79
72857;BME280;62742;52.136;4.500;2022-09-13T06:38:56;101146.78;;;19.21;85.93
72857;BME280;62742;52.136;4.500;2022-09-13T06:41:25;101146.72;;;19.23;86.05
72857;BME280;62742;52.136;4.500;2022-09-13T06:43:55;101146.97;;;19.18;85.68
72857;BME280;62742;52.136;4.500;2022-09-13T06:46:24;101152.28;;;19.18;85.75
72857;BME280;62742;52.136;4.500;2022-09-13T06:48:53;101151.72;;;19.31;84.68
72857;BME280;62742;52.136;4.500;2022-09-13T06:51:22;101146.09;;;19.18;85.90
72857;BME280;62742;52.136;4.500;2022-09-13T06:53:51;101153.81;;;19.24;84.66
72857;BME280;62742;52.136;4.500;2022-09-13T06:56:26;101149.47;;;19.21;85.18
72857;BME280;62742;52.136;4.500;2022-09-13T06:58:58;101154.50;;;19.28;84.94
72857;BME280;62742;52.136;4.500;2022-09-13T07:01:32;101149.13;;;19.29;85.12
72857;BME280;62742;52.136;4.500;2022-09-13T07:04:04;101137.66;;;19.46;84.44
72857;BME280;62742;52.136;4.500;2022-09-13T07:06:37;101139.28;;;19.49;84.08
72857;BME280;62742;52.136;4.500;2022-09-13T07:09:07;101146.31;;;19.32;84.63
72857;BME280;62742;52.136;4.500;2022-09-13T07:11:39;101137.84;;;19.60;83.37
72857;BME280;62742;52.136;4.500;2022-09-13T07:14:06;101142.53;;;19.55;83.97
72857;BME280;62742;52.136;4.500;2022-09-13T07:16:36;101140.69;;;19.94;82.92
72857;BME280;62742;52.136;4.500;2022-09-13T07:19:05;101141.09;;;20.04;81.46
72857;BME280;62742;52.136;4.500;2022-09-13T07:21:37;101140.13;;;20.22;81.82
72857;BME280;62742;52.136;4.500;2022-09-13T07:24:03;101143.91;;;20.35;80.80
72857;BME280;62742;52.136;4.500;2022-09-13T07:26:30;101137.31;;;20.08;79.35
72857;BME280;62742;52.136;4.500;2022-09-13T07:28:59;101135.34;;;20.11;79.34
72857;BME280;62742;52.136;4.500;2022-09-13T07:31:33;101131.72;;;20.47;78.18
72857;BME280;62742;52.136;4.500;2022-09-13T07:34:06;101136.50;;;20.76;77.85
72857;BME280;62742;52.136;4.500;2022-09-13T07:36:36;101141.66;;;20.79;76.65
72857;BME280;62742;52.136;4.500;2022-09-13T07:39:04;101141.25;;;20.86;76.99
72857;BME280;62742;52.136;4.500;2022-09-13T07:41:32;101142.84;;;21.22;75.60
72857;BME280;62742;52.136;4.500;2022-09-13T07:44:00;101143.94;;;21.02;73.43
72857;BME280;62742;52.136;4.500;2022-09-13T07:46:28;101149.66;;;20.79;75.43
72857;BME280;62742;52.136;4.500;2022-09-13T07:49:01;101148.66;;;21.62;73.69
72857;BME280;62742;52.136;4.500;2022-09-13T07:51:30;101146.34;;;21.56;71.70
72857;BME280;62742;52.136;4.500;2022-09-13T07:54:00;101148.41;;;21.67;71.85
72857;BME280;62742;52.136;4.500;2022-09-13T07:56:36;101155.84;;;21.13;74.21
72857;BME280;62742;52.136;4.500;2022-09-13T07:59:07;101156.34;;;21.53;71.39
72857;BME280;62742;52.136;4.500;2022-09-13T08:01:40;101149.09;;;21.55;71.99
72857;BME280;62742;52.136;4.500;2022-09-13T08:04:13;101158.94;;;21.70;71.18
72857;BME280;62742;52.136;4.500;2022-09-13T08:06:43;101161.00;;;21.65;71.47
72857;BME280;62742;52.136;4.500;2022-09-13T08:09:12;101160.47;;;21.74;71.20
72857;BME280;62742;52.136;4.500;2022-09-13T08:11:44;101161.31;;;21.91;70.64
72857;BME280;62742;52.136;4.500;2022-09-13T08:14:16;101163.00;;;22.08;69.09
72857;BME280;62742;52.136;4.500;2022-09-13T08:16:43;101160.25;;;22.09;70.19
72857;BME280;62742;52.136;4.500;2022-09-13T08:19:16;101164.94;;;22.36;69.05
72857;BME280;62742;52.136;4.500;2022-09-13T08:21:45;101161.25;;;22.22;69.22
72857;BME280;62742;52.136;4.500;2022-09-13T08:24:14;101161.69;;;21.69;70.63
72857;BME280;62742;52.136;4.500;2022-09-13T08:26:45;101169.09;;;21.79;69.65
72857;BME280;62742;52.136;4.500;2022-09-13T08:29:13;101169.91;;;22.28;68.94
72857;BME280;62742;52.136;4.500;2022-09-13T08:31:40;101167.38;;;21.78;70.86
72857;BME280;62742;52.136;4.500;2022-09-13T08:34:12;101170.09;;;22.09;70.11
72857;BME280;62742;52.136;4.500;2022-09-13T08:36:40;101168.31;;;22.23;68.34
72857;BME280;62742;52.136;4.500;2022-09-13T08:39:08;101177.53;;;21.88;69.58
72857;BME280;62742;52.136;4.500;2022-09-13T08:44:46;101172.84;;;22.07;70.08
72857;BME280;62742;52.136;4.500;2022-09-13T08:50:24;101178.34;;;22.36;69.27
72857;BME280;62742;52.136;4.500;2022-09-13T08:56:10;101185.13;;;21.79;68.63
72857;BME280;62742;52.136;4.500;2022-09-13T09:05:03;101204.59;;;21.18;71.09
72857;BME280;62742;52.136;4.500;2022-09-13T09:07:58;101197.81;;;21.44;70.10
72857;BME280;62742;52.136;4.500;2022-09-13T09:10:32;101202.19;;;21.45;69.59
72857;BME280;62742;52.136;4.500;2022-09-13T09:13:05;101208.22;;;21.33;70.08
72857;BME280;62742;52.136;4.500;2022-09-13T09:15:46;101197.06;;;21.74;69.31
72857;BME280;62742;52.136;4.500;2022-09-13T09:18:31;101206.47;;;21.65;67.62
72857;BME280;62742;52.136;4.500;2022-09-13T09:21:11;101196.00;;;21.44;68.65
72857;BME280;62742;52.136;4.500;2022-09-13T09:23:48;101190.31;;;21.82;67.40
72857;BME280;62742;52.136;4.500;2022-09-13T09:26:21;101189.59;;;21.95;67.61
72857;BME280;62742;52.136;4.500;2022-09-13T09:32:07;101190.16;;;21.85;65.52
72857;BME280;62742;52.136;4.500;2022-09-13T09:37:38;101188.63;;;21.81;63.78
72857;BME280;62742;52.136;4.500;2022-09-13T09:40:12;101181.41;;;21.98;63.72
72857;BME280;62742;52.136;4.500;2022-09-13T09:42:46;101188.06;;;21.91;65.00
72857;BME280;62742;52.136;4.500;2022-09-13T09:45:28;101191.34;;;21.96;64.16
72857;BME280;62742;52.136;4.500;2022-09-13T09:48:04;101189.25;;;22.01;65.00
72857;BME280;62742;52.136;4.500;2022-09-13T09:50:44;101191.78;;;22.04;64.28
72857;BME280;62742;52.136;4.500;2022-09-13T09:53:17;101189.84;;;22.52;63.49
72857;BME280;62742;52.136;4.500;2022-09-13T09:58:43;101187.72;;;22.27;64.00
72857;BME280;62742;52.136;4.500;2022-09-13T10:06:39;101183.44;;;22.84;61.91
72857;BME280;62742;52.136;4.500;2022-09-13T10:14:38;101184.47;;;22.52;61.79
72857;BME280;62742;52.136;4.500;2022-09-13T10:17:17;101179.47;;;22.91;61.40
72857;BME280;62742;52.136;4.500;2022-09-13T10:19:56;101181.44;;;22.58;62.58
72857;BME280;62742;52.136;4.500;2022-09-13T10:22:30;101178.28;;;22.52;61.36
72857;BME280;62742;52.136;4.500;2022-09-13T10:25:25;101173.41;;;23.02;62.08
72857;BME280;62742;52.136;4.500;2022-09-13T10:27:54;101174.66;;;23.39;60.09
72857;BME280;62742;52.136;4.500;2022-09-13T10:33:05;101163.78;;;23.97;55.52
72857;BME280;62742;52.136;4.500;2022-09-13T10:35:39;101168.03;;;24.26;58.60
72857;BME280;62742;52.136;4.500;2022-09-13T10:41:39;101170.41;;;23.91;58.00
72857;BME280;62742;52.136;4.500;2022-09-13T10:44:31;101157.22;;;24.54;54.93
72857;BME280;62742;52.136;4.500;2022-09-13T10:47:21;101147.25;;;24.03;56.65
72857;BME280;62742;52.136;4.500;2022-09-13T10:49:54;101149.22;;;24.14;56.66
72857;BME280;62742;52.136;4.500;2022-09-13T11:00:58;101173.03;;;22.93;57.75
72857;BME280;62742;52.136;4.500;2022-09-13T11:06:57;101159.34;;;23.68;57.21
72857;BME280;62742;52.136;4.500;2022-09-13T11:09:40;101158.06;;;24.01;55.20
72857;BME280;62742;52.136;4.500;2022-09-13T11:22:15;101160.28;;;23.82;55.74
72857;BME280;62742;52.136;4.500;2022-09-13T11:25:16;101155.03;;;23.24;53.72
72857;BME280;62742;52.136;4.500;2022-09-13T11:31:42;101150.09;;;23.18;54.30
72857;BME280;62742;52.136;4.500;2022-09-13T11:41:10;101145.59;;;24.40;53.75
72857;BME280;62742;52.136;4.500;2022-09-13T11:47:29;101158.47;;;24.22;52.86
72857;BME280;62742;52.136;4.500;2022-09-13T11:53:29;101155.72;;;24.50;51.99
72857;BME280;62742;52.136;4.500;2022-09-13T12:02:11;101157.41;;;25.02;49.54
72857;BME280;62742;52.136;4.500;2022-09-13T12:04:59;101153.34;;;25.09;49.10
72857;BME280;62742;52.136;4.500;2022-09-13T12:07:45;101159.34;;;25.26;48.90
72857;BME280;62742;52.136;4.500;2022-09-13T12:10:45;101155.63;;;23.98;50.09
72857;BME280;62742;52.136;4.500;2022-09-13T12:13:29;101160.34;;;23.80;49.58
72857;BME280;62742;52.136;4.500;2022-09-13T12:16:07;101151.00;;;24.00;51.26
72857;BME280;62742;52.136;4.500;2022-09-13T12:21:18;101151.81;;;25.05;49.45
72857;BME280;62742;52.136;4.500;2022-09-13T12:24:01;101155.63;;;25.52;48.73
72857;BME280;62742;52.136;4.500;2022-09-13T12:26:55;101145.81;;;25.75;47.22
72857;BME280;62742;52.136;4.500;2022-09-13T12:29:46;101149.19;;;24.67;47.06
72857;BME280;62742;52.136;4.500;2022-09-13T12:32:17;101149.66;;;24.33;47.26
72857;BME280;62742;52.136;4.500;2022-09-13T12:34:49;101142.84;;;24.68;47.72
72857;BME280;62742;52.136;4.500;2022-09-13T13:00:35;101140.34;;;24.52;49.39
72857;BME280;62742;52.136;4.500;2022-09-13T13:05:48;101137.00;;;24.48;48.52
72857;BME280;62742;52.136;4.500;2022-09-13T13:08:33;101134.91;;;24.00;49.65
72857;BME280;62742;52.136;4.500;2022-09-13T13:11:11;101135.03;;;24.37;47.28
72857;BME280;62742;52.136;4.500;2022-09-13T13:13:45;101131.88;;;24.71;47.43
72857;BME280;62742;52.136;4.500;2022-09-13T13:16:26;101131.41;;;25.02;48.94
72857;BME280;62742;52.136;4.500;2022-09-13T13:19:33;101133.50;;;24.60;47.24
72857;BME280;62742;52.136;4.500;2022-09-13T13:25:37;101139.28;;;24.93;47.38
72857;BME280;62742;52.136;4.500;2022-09-13T13:36:43;101142.69;;;24.43;48.96
72857;BME280;62742;52.136;4.500;2022-09-13T13:59:54;101158.97;;;24.80;49.62
72857;BME280;62742;52.136;4.500;2022-09-13T14:05:31;101153.13;;;24.99;49.21
72857;BME280;62742;52.136;4.500;2022-09-13T14:20:12;101143.44;;;24.33;48.15
72857;BME280;62742;52.136;4.500;2022-09-13T14:22:42;101142.78;;;24.29;46.95
72857;BME280;62742;52.136;4.500;2022-09-13T14:27:46;101140.59;;;23.12;48.65
72857;BME280;62742;52.136;4.500;2022-09-13T14:32:54;101145.91;;;23.41;50.39
72857;BME280;62742;52.136;4.500;2022-09-13T14:35:37;101142.25;;;23.84;48.57
72857;BME280;62742;52.136;4.500;2022-09-13T14:38:26;101140.25;;;24.00;49.06
72857;BME280;62742;52.136;4.500;2022-09-13T14:41:13;101152.50;;;24.04;46.59
72857;BME280;62742;52.136;4.500;2022-09-13T14:43:43;101155.22;;;23.21;51.73
72857;BME280;62742;52.136;4.500;2022-09-13T14:51:55;101151.59;;;23.22;52.16
72857;BME280;62742;52.136;4.500;2022-09-13T14:54:42;101152.38;;;23.10;50.73
72857;BME280;62742;52.136;4.500;2022-09-13T14:57:29;101158.94;;;23.47;50.45
72857;BME280;62742;52.136;4.500;2022-09-13T15:00:17;101146.72;;;23.56;49.54
72857;BME280;62742;52.136;4.500;2022-09-13T15:02:51;101147.03;;;23.51;49.14
72857;BME280;62742;52.136;4.500;2022-09-13T15:05:32;101154.66;;;23.30;51.39
72857;BME280;62742;52.136;4.500;2022-09-13T15:11:01;101159.06;;;22.74;50.87
72857;BME280;62742;52.136;4.500;2022-09-13T15:13:31;101154.56;;;22.74;51.26
72857;BME280;62742;52.136;4.500;2022-09-13T15:15:58;101145.28;;;22.21;53.57
72857;BME280;62742;52.136;4.500;2022-09-13T15:18:30;101154.16;;;22.66;52.74
72857;BME280;62742;52.136;4.500;2022-09-13T15:23:41;101147.19;;;22.78;52.45
72857;BME280;62742;52.136;4.500;2022-09-13T15:26:24;101151.78;;;22.62;51.65
72857;BME280;62742;52.136;4.500;2022-09-13T15:28:58;101140.91;;;23.08;60.22
72857;BME280;62742;52.136;4.500;2022-09-13T15:31:33;101144.22;;;22.68;51.24
72857;BME280;62742;52.136;4.500;2022-09-13T15:34:30;101139.47;;;22.29;53.52
72857;BME280;62742;52.136;4.500;2022-09-13T15:37:11;101143.25;;;22.55;56.21
72857;BME280;62742;52.136;4.500;2022-09-13T15:40:29;101128.47;;;22.03;54.21
72857;BME280;62742;52.136;4.500;2022-09-13T15:42:50;101143.78;;;21.21;55.62
72857;BME280;62742;52.136;4.500;2022-09-13T15:45:19;101133.31;;;21.66;56.56
72857;BME280;62742;52.136;4.500;2022-09-13T15:47:49;101136.34;;;21.60;56.08
72857;BME280;62742;52.136;4.500;2022-09-13T15:50:35;101132.53;;;21.64;55.86
72857;BME280;62742;52.136;4.500;2022-09-13T15:53:09;101131.22;;;22.01;55.21
72857;BME280;62742;52.136;4.500;2022-09-13T15:55:38;101137.94;;;21.62;54.65
72857;BME280;62742;52.136;4.500;2022-09-13T15:58:04;101134.56;;;20.95;56.38
72857;BME280;62742;52.136;4.500;2022-09-13T16:00:31;101135.44;;;21.27;55.54
72857;BME280;62742;52.136;4.500;2022-09-13T16:02:57;101125.63;;;21.60;55.08
72857;BME280;62742;52.136;4.500;2022-09-13T16:05:25;101131.13;;;21.41;54.04
72857;BME280;62742;52.136;4.500;2022-09-13T16:07:51;101125.97;;;21.22;56.26
72857;BME280;62742;52.136;4.500;2022-09-13T16:10:22;101112.09;;;20.66;56.10
72857;BME280;62742;52.136;4.500;2022-09-13T16:12:48;101113.19;;;20.95;57.67
72857;BME280;62742;52.136;4.500;2022-09-13T16:15:15;101110.97;;;21.35;58.55
72857;BME280;62742;52.136;4.500;2022-09-13T16:17:42;101113.19;;;21.43;57.78
72857;BME280;62742;52.136;4.500;2022-09-13T16:20:13;101099.47;;;21.65;57.82
72857;BME280;62742;52.136;4.500;2022-09-13T16:22:42;101095.97;;;21.48;57.84
72857;BME280;62742;52.136;4.500;2022-09-13T16:25:10;101103.91;;;21.66;57.42
72857;BME280;62742;52.136;4.500;2022-09-13T16:27:40;101101.66;;;21.42;58.59
72857;BME280;62742;52.136;4.500;2022-09-13T16:30:12;101104.22;;;21.44;56.49
72857;BME280;62742;52.136;4.500;2022-09-13T16:32:39;101098.19;;;21.40;56.47
72857;BME280;62742;52.136;4.500;2022-09-13T16:35:07;101096.19;;;21.28;58.02
72857;BME280;62742;52.136;4.500;2022-09-13T16:37:34;101100.25;;;21.19;55.48
72857;BME280;62742;52.136;4.500;2022-09-13T16:40:01;101108.88;;;20.92;57.97
72857;BME280;62742;52.136;4.500;2022-09-13T16:42:28;101104.56;;;20.90;57.69
72857;BME280;62742;52.136;4.500;2022-09-13T16:44:55;101098.59;;;20.85;56.09
72857;BME280;62742;52.136;4.500;2022-09-13T16:47:21;101106.63;;;20.85;57.22
72857;BME280;62742;52.136;4.500;2022-09-13T16:49:48;101091.97;;;20.92;56.68
72857;BME280;62742;52.136;4.500;2022-09-13T16:52:14;101092.53;;;20.65;57.20
72857;BME280;62742;52.136;4.500;2022-09-13T16:54:41;101092.19;;;20.38;56.50
72857;BME280;62742;52.136;4.500;2022-09-13T16:57:11;101087.56;;;19.89;58.48
72857;BME280;62742;52.136;4.500;2022-09-13T16:59:39;101080.81;;;20.34;58.91
72857;BME280;62742;52.136;4.500;2022-09-13T17:02:09;101086.50;;;20.44;58.46
72857;BME280;62742;52.136;4.500;2022-09-13T17:04:36;101086.03;;;20.53;58.17
72857;BME280;62742;52.136;4.500;2022-09-13T17:07:03;101084.16;;;20.21;57.90